createdAt,value
2019-02-28T00:00:15.454Z,0.00
2019-02-28T00:01:06.390Z,0.00
2019-02-28T00:02:01.442Z,0.00
2019-02-28T00:03:01.443Z,0.00
2019-02-28T00:04:01.450Z,0.00
2019-02-28T00:05:22.941Z,0.00
2019-02-28T00:06:01.942Z,0.00
2019-02-28T00:08:36.663Z,0.00
2019-02-28T00:09:36.670Z,0.00
2019-02-28T00:10:36.679Z,0.00
2019-02-28T00:11:39.492Z,0.00
2019-02-28T00:12:41.170Z,0.00
2019-02-28T00:13:37.170Z,0.00
2019-02-28T00:14:37.170Z,0.00
2019-02-28T00:19:04.829Z,0.00
2019-02-28T00:19:40.334Z,0.00
2019-02-28T00:20:40.334Z,0.00
2019-02-28T00:22:01.841Z,0.00
2019-02-28T00:22:40.833Z,0.00
2019-02-28T00:23:43.836Z,0.00
2019-02-28T00:24:40.833Z,0.00
2019-02-28T00:25:41.334Z,0.00
2019-02-28T00:27:02.332Z,0.00
2019-02-28T00:27:41.348Z,0.00
2019-02-28T00:28:45.335Z,0.00
2019-02-28T00:30:06.094Z,0.00
2019-02-28T00:31:02.832Z,0.00
2019-02-28T00:31:41.835Z,0.00
2019-02-28T00:32:41.832Z,0.00
2019-02-28T00:33:42.333Z,0.00
2019-02-28T00:35:12.949Z,0.00
2019-02-28T00:35:44.747Z,0.00
2019-02-28T00:37:03.327Z,0.00
2019-02-28T00:37:42.832Z,0.00
2019-02-28T00:38:42.831Z,0.00
2019-02-28T00:39:42.831Z,0.00
2019-02-28T00:40:46.331Z,0.00
2019-02-28T00:43:14.563Z,0.00
2019-02-28T00:44:14.570Z,0.00
2019-02-28T00:45:14.569Z,0.00
2019-02-28T00:46:44.011Z,0.00
2019-02-28T00:47:16.455Z,0.00
2019-02-28T00:48:15.076Z,0.00
2019-02-28T00:49:16.032Z,0.00
2019-02-28T00:51:50.262Z,0.00
2019-02-28T00:52:46.771Z,0.00
2019-02-28T00:53:46.769Z,0.00
2019-02-28T00:54:47.274Z,0.00
2019-02-28T00:55:47.274Z,0.00
2019-02-28T00:56:51.635Z,0.00
2019-02-28T00:57:51.270Z,0.00
2019-02-28T00:58:47.771Z,0.00
2019-02-28T00:59:47.778Z,0.00
2019-02-28T01:00:47.769Z,0.00
2019-02-28T01:02:08.768Z,0.00
2019-02-28T01:02:52.073Z,0.00
2019-02-28T01:03:51.267Z,0.00
2019-02-28T01:04:49.209Z,0.00
2019-02-28T01:05:48.269Z,0.00
2019-02-28T01:06:48.275Z,0.00
2019-02-28T01:07:48.951Z,0.00
2019-02-28T01:10:23.963Z,0.00
2019-02-28T01:11:23.970Z,0.00
2019-02-28T01:12:23.970Z,0.00
2019-02-28T01:13:27.291Z,0.00
2019-02-28T01:14:27.973Z,0.00
2019-02-28T01:15:24.469Z,0.00
2019-02-28T01:16:24.510Z,0.00
2019-02-28T01:17:45.470Z,0.00
2019-02-28T01:19:59.705Z,0.00
2019-02-28T01:20:57.647Z,0.00
2019-02-28T01:21:56.304Z,0.00
2019-02-28T01:22:58.482Z,0.00
2019-02-28T01:25:31.578Z,0.00
2019-02-28T01:26:28.079Z,0.00
2019-02-28T01:27:28.075Z,0.00
2019-02-28T01:29:59.808Z,0.00
2019-02-28T01:31:03.827Z,0.00
2019-02-28T01:31:59.812Z,0.00
2019-02-28T01:34:32.188Z,0.00
2019-02-28T01:35:31.549Z,0.00
2019-02-28T01:36:37.001Z,0.00
2019-02-28T01:37:53.098Z,0.00
2019-02-28T01:38:57.499Z,0.00
2019-02-28T01:39:31.275Z,0.00
2019-02-28T01:40:35.180Z,0.00
2019-02-28T01:41:32.051Z,0.00
2019-02-28T01:42:35.544Z,0.00
2019-02-28T01:45:03.907Z,0.00
2019-02-28T01:46:03.922Z,0.00
2019-02-28T01:47:03.907Z,0.00
2019-02-28T01:48:28.923Z,0.00
2019-02-28T01:49:04.426Z,0.00
2019-02-28T01:50:04.415Z,0.00
2019-02-28T01:51:04.412Z,0.00
2019-02-28T01:52:09.566Z,0.00
2019-02-28T01:53:04.906Z,0.00
2019-02-28T01:55:40.000Z,0.00
2019-02-28T01:56:40.015Z,0.00
2019-02-28T01:57:44.086Z,0.00
2019-02-28T02:00:15.239Z,0.00
2019-02-28T02:01:11.744Z,0.00
2019-02-28T02:02:11.744Z,0.00
2019-02-28T02:03:33.244Z,0.00
2019-02-28T02:04:13.156Z,0.00
2019-02-28T02:05:17.281Z,0.00
2019-02-28T02:06:12.250Z,0.00
2019-02-28T02:07:33.894Z,0.00
2019-02-28T02:08:12.743Z,0.00
2019-02-28T02:09:12.746Z,0.00
2019-02-28T02:10:12.752Z,0.00
2019-02-28T02:11:16.242Z,0.00
2019-02-28T02:12:13.242Z,0.00
2019-02-28T02:13:36.635Z,0.00
2019-02-28T02:14:13.246Z,0.00
2019-02-28T02:15:34.757Z,0.00
2019-02-28T02:16:17.240Z,0.00
2019-02-28T02:17:13.741Z,0.00
2019-02-28T02:18:13.741Z,0.00
2019-02-28T02:19:17.480Z,0.00
2019-02-28T02:20:16.242Z,0.00
2019-02-28T02:21:14.242Z,0.00
2019-02-28T02:22:18.241Z,0.00
2019-02-28T02:23:35.740Z,0.00
2019-02-28T02:24:14.741Z,0.00
2019-02-28T02:25:37.485Z,0.00
2019-02-28T02:26:14.749Z,0.00
2019-02-28T02:27:39.742Z,0.00
2019-02-28T02:28:15.240Z,0.00
2019-02-28T02:32:18.433Z,0.00
2019-02-28T02:33:42.450Z,0.00
2019-02-28T02:34:18.439Z,0.00
2019-02-28T02:36:54.193Z,0.00
2019-02-28T02:37:50.176Z,0.00
2019-02-28T02:38:54.176Z,0.00
2019-02-28T02:39:51.336Z,0.00
2019-02-28T02:41:11.681Z,0.00
2019-02-28T02:41:50.683Z,0.00
2019-02-28T02:42:50.675Z,0.00
2019-02-28T02:43:55.147Z,0.00
2019-02-28T02:44:55.187Z,0.00
2019-02-28T02:45:51.174Z,0.00
2019-02-28T02:46:55.574Z,0.00
2019-02-28T02:47:51.689Z,0.00
2019-02-28T02:48:51.672Z,0.00
2019-02-28T02:49:56.184Z,0.00
2019-02-28T02:50:55.176Z,0.00
2019-02-28T02:51:52.174Z,0.00
2019-02-28T02:52:52.174Z,0.00
2019-02-28T02:53:52.206Z,0.00
2019-02-28T02:54:53.030Z,0.00
2019-02-28T02:55:56.175Z,0.00
2019-02-28T02:56:52.673Z,0.00
2019-02-28T02:57:52.674Z,0.00
2019-02-28T02:58:52.676Z,0.00
2019-02-28T02:59:53.180Z,0.00
2019-02-28T03:00:54.607Z,0.00
2019-02-28T03:02:17.175Z,0.00
2019-02-28T03:03:14.179Z,0.00
2019-02-28T03:03:53.680Z,0.00
2019-02-28T03:04:57.842Z,0.00
2019-02-28T03:05:53.671Z,0.00
2019-02-28T03:08:35.718Z,0.00
2019-02-28T03:09:28.908Z,0.00
2019-02-28T03:10:28.905Z,0.00
2019-02-28T03:11:35.344Z,0.00
2019-02-28T03:12:33.053Z,0.00
2019-02-28T03:13:30.361Z,0.00
2019-02-28T03:14:29.414Z,0.00
2019-02-28T03:15:29.403Z,0.00
2019-02-28T03:18:04.639Z,0.00
2019-02-28T03:19:01.145Z,0.00
2019-02-28T03:20:01.158Z,0.00
2019-02-28T03:21:01.641Z,0.00
2019-02-28T03:22:01.643Z,0.00
2019-02-28T03:23:03.162Z,0.00
2019-02-28T03:24:05.643Z,0.00
2019-02-28T03:25:02.224Z,0.00
2019-02-28T03:26:06.912Z,0.00
2019-02-28T03:27:02.140Z,0.00
2019-02-28T03:28:02.152Z,0.00
2019-02-28T03:29:07.600Z,0.00
2019-02-28T03:30:05.647Z,0.00
2019-02-28T03:31:11.934Z,0.00
2019-02-28T03:32:02.639Z,0.00
2019-02-28T03:33:03.143Z,0.00
2019-02-28T03:34:10.379Z,0.00
2019-02-28T03:35:06.644Z,0.00
2019-02-28T03:36:03.143Z,0.00
2019-02-28T03:37:03.648Z,0.00
2019-02-28T03:38:10.393Z,0.00
2019-02-28T03:39:03.638Z,0.00
2019-02-28T03:40:29.137Z,0.00
2019-02-28T03:41:25.140Z,0.00
2019-02-28T03:42:07.573Z,0.00
2019-02-28T03:43:06.731Z,0.00
2019-02-28T03:44:04.148Z,0.00
2019-02-28T03:46:46.334Z,0.00
2019-02-28T03:48:00.562Z,0.00
2019-02-28T03:48:39.561Z,0.00
2019-02-28T03:50:01.059Z,0.00
2019-02-28T03:50:43.580Z,0.00
2019-02-28T03:51:40.053Z,0.00
2019-02-28T03:52:43.771Z,0.00
2019-02-28T03:54:01.555Z,0.00
2019-02-28T03:54:40.554Z,0.00
2019-02-28T03:56:05.051Z,0.00
2019-02-28T03:56:40.553Z,0.00
2019-02-28T03:58:05.526Z,0.00
2019-02-28T03:58:42.818Z,0.00
2019-02-28T03:59:41.053Z,0.00
2019-02-28T04:00:41.055Z,0.00
2019-02-28T04:01:45.490Z,0.00
2019-02-28T04:02:41.549Z,0.00
2019-02-28T04:03:41.551Z,0.00
2019-02-28T04:04:48.462Z,0.00
2019-02-28T04:06:05.504Z,0.00
2019-02-28T04:06:45.067Z,0.00
2019-02-28T04:07:42.055Z,0.00
2019-02-28T04:08:42.069Z,0.00
2019-02-28T04:10:03.552Z,0.00
2019-02-28T04:10:42.552Z,0.00
2019-02-28T04:12:08.665Z,0.00
2019-02-28T04:12:45.673Z,0.00
2019-02-28T04:13:43.063Z,0.00
2019-02-28T04:14:43.052Z,0.00
2019-02-28T04:15:50.739Z,0.00
2019-02-28T04:16:43.051Z,0.00
2019-02-28T04:17:47.049Z,0.00
2019-02-28T04:18:46.134Z,0.00
2019-02-28T04:19:43.549Z,0.00
2019-02-28T04:20:43.550Z,0.00
2019-02-28T04:23:39.783Z,0.00
2019-02-28T04:24:15.323Z,0.00
2019-02-28T04:25:36.295Z,0.00
2019-02-28T04:26:15.285Z,0.00
2019-02-28T04:29:11.525Z,0.00
2019-02-28T04:29:47.064Z,0.00
2019-02-28T04:30:47.040Z,0.00
2019-02-28T04:33:40.244Z,0.00
2019-02-28T04:34:22.964Z,0.00
2019-02-28T04:35:41.714Z,0.00
2019-02-28T04:36:40.260Z,0.00
2019-02-28T04:37:44.645Z,0.00
2019-02-28T04:38:21.419Z,0.00
2019-02-28T04:39:23.644Z,0.00
2019-02-28T04:40:19.761Z,0.00
2019-02-28T04:41:19.754Z,0.00
2019-02-28T04:42:20.255Z,0.00
2019-02-28T04:43:41.542Z,0.00
2019-02-28T04:44:24.254Z,0.00
2019-02-28T04:45:41.258Z,0.00
2019-02-28T04:46:20.752Z,0.00
2019-02-28T04:47:20.753Z,0.00
2019-02-28T04:48:20.753Z,0.00
2019-02-28T04:49:22.673Z,0.00
2019-02-28T04:50:24.253Z,0.00
2019-02-28T04:51:21.253Z,0.00
2019-02-28T04:52:21.279Z,0.00
2019-02-28T04:53:21.253Z,0.00
2019-02-28T04:54:24.486Z,0.00
2019-02-28T04:55:46.253Z,0.00
2019-02-28T04:56:21.768Z,0.00
2019-02-28T04:57:21.756Z,0.00
2019-02-28T04:58:24.920Z,0.00
2019-02-28T04:59:43.259Z,0.00
2019-02-28T05:00:28.251Z,0.00
2019-02-28T05:01:26.269Z,0.00
2019-02-28T05:02:22.752Z,0.00
2019-02-28T05:03:43.752Z,0.00
2019-02-28T05:04:22.768Z,0.00
2019-02-28T05:05:22.751Z,0.00
2019-02-28T05:06:55.321Z,0.00
2019-02-28T05:07:26.217Z,0.00
2019-02-28T05:08:24.185Z,0.00
2019-02-28T05:09:23.250Z,0.00
2019-02-28T05:10:23.752Z,0.00
2019-02-28T05:11:23.752Z,0.00
2019-02-28T05:12:27.753Z,0.00
2019-02-28T05:13:23.750Z,0.00
2019-02-28T05:14:24.431Z,0.00
2019-02-28T05:15:45.247Z,0.00
2019-02-28T05:16:24.258Z,0.00
2019-02-28T05:17:24.249Z,0.00
2019-02-28T05:18:49.751Z,0.00
2019-02-28T05:19:24.750Z,0.00
2019-02-28T05:20:24.756Z,0.00
2019-02-28T05:21:24.750Z,0.00
2019-02-28T05:22:27.570Z,0.00
2019-02-28T05:23:25.250Z,0.00
2019-02-28T05:24:49.750Z,0.00
2019-02-28T05:25:25.249Z,0.00
2019-02-28T05:26:26.230Z,0.00
2019-02-28T05:27:25.749Z,0.00
2019-02-28T05:28:27.209Z,0.00
2019-02-28T05:29:32.721Z,0.00
2019-02-28T05:30:26.249Z,0.00
2019-02-28T05:31:47.246Z,0.00
2019-02-28T05:32:26.247Z,0.00
2019-02-28T05:33:47.247Z,0.00
2019-02-28T05:34:28.199Z,0.00
2019-02-28T05:35:49.968Z,0.00
2019-02-28T05:36:27.703Z,0.00
2019-02-28T05:38:58.310Z,0.00
2019-02-28T05:39:58.325Z,4.00
2019-02-28T05:41:02.338Z,0.00
2019-02-28T05:43:32.183Z,0.00
2019-02-28T05:44:51.541Z,4.00
2019-02-28T05:45:30.540Z,4.00
2019-02-28T05:46:35.041Z,4.00
2019-02-28T05:47:32.432Z,4.00
2019-02-28T05:48:31.049Z,8.00
2019-02-28T05:49:31.044Z,8.00
2019-02-28T05:50:53.232Z,12.00
2019-02-28T05:51:35.040Z,12.00
2019-02-28T05:52:33.734Z,16.00
2019-02-28T05:53:52.538Z,16.00
2019-02-28T05:54:31.540Z,20.00
2019-02-28T05:55:53.041Z,24.00
2019-02-28T05:56:33.238Z,28.00
2019-02-28T05:57:35.050Z,28.00
2019-02-28T05:58:32.974Z,36.00
2019-02-28T05:59:53.541Z,40.00
2019-02-28T06:00:33.455Z,48.00
2019-02-28T06:01:32.539Z,56.00
2019-02-28T06:02:36.039Z,60.00
2019-02-28T06:03:54.044Z,68.00
2019-02-28T06:04:34.155Z,76.00
2019-02-28T06:05:33.038Z,84.00
2019-02-28T06:06:36.972Z,92.00
2019-02-28T06:08:00.550Z,104.00
2019-02-28T06:08:54.538Z,116.00
2019-02-28T06:09:33.544Z,128.00
2019-02-28T06:10:33.542Z,140.00
2019-02-28T06:11:35.551Z,152.00
2019-02-28T06:12:59.038Z,164.00
2019-02-28T06:13:34.043Z,180.00
2019-02-28T06:14:34.037Z,192.00
2019-02-28T06:15:37.201Z,204.00
2019-02-28T06:16:34.537Z,224.00
2019-02-28T06:17:34.537Z,240.00
2019-02-28T06:18:39.471Z,256.00
2019-02-28T06:21:12.266Z,296.00
2019-02-28T06:22:27.287Z,312.00
2019-02-28T06:23:09.220Z,336.00
2019-02-28T06:25:41.523Z,380.00
2019-02-28T06:26:41.538Z,400.00
2019-02-28T06:27:42.321Z,416.00
2019-02-28T06:28:42.046Z,436.00
2019-02-28T06:29:45.531Z,456.00
2019-02-28T06:31:03.053Z,476.00
2019-02-28T06:31:42.029Z,492.00
2019-02-28T06:32:42.530Z,512.00
2019-02-28T06:33:44.550Z,536.00
2019-02-28T06:34:43.062Z,556.00
2019-02-28T06:35:49.531Z,576.00
2019-02-28T06:36:43.037Z,596.00
2019-02-28T06:37:43.030Z,620.00
2019-02-28T06:38:43.041Z,644.00
2019-02-28T06:39:43.036Z,668.00
2019-02-28T06:41:14.029Z,688.00
2019-02-28T06:41:43.528Z,712.00
2019-02-28T06:42:46.574Z,728.00
2019-02-28T06:43:44.302Z,752.00
2019-02-28T06:44:44.037Z,776.00
2019-02-28T06:45:44.028Z,800.00
2019-02-28T06:47:14.094Z,820.00
2019-02-28T06:47:48.225Z,844.00
2019-02-28T06:49:07.147Z,872.00
2019-02-28T06:49:44.527Z,900.00
2019-02-28T06:50:44.662Z,920.00
2019-02-28T06:53:40.521Z,984.00
2019-02-28T06:54:19.530Z,1004.00
2019-02-28T06:55:40.515Z,1024.00
2019-02-28T06:56:41.017Z,1048.00
2019-02-28T06:57:26.143Z,1064.00
2019-02-28T06:58:20.013Z,1088.00
2019-02-28T06:59:20.012Z,1116.00
2019-02-28T07:00:20.512Z,1144.00
2019-02-28T07:01:41.544Z,1172.00
2019-02-28T07:02:20.511Z,1180.00
2019-02-28T07:03:24.514Z,1196.00
2019-02-28T07:04:21.013Z,1212.00
2019-02-28T07:06:52.377Z,1264.00
2019-02-28T07:07:52.375Z,1284.00
2019-02-28T07:09:01.902Z,1308.00
2019-02-28T07:11:24.056Z,1376.00
2019-02-28T07:12:29.179Z,1396.00
2019-02-28T07:13:24.056Z,1416.00
2019-02-28T07:16:00.723Z,1444.00
2019-02-28T07:17:20.285Z,1452.00
2019-02-28T07:17:59.297Z,1452.00
2019-02-28T07:22:06.345Z,1584.00
2019-02-28T07:23:06.367Z,1628.00
2019-02-28T07:24:06.351Z,1612.00
2019-02-28T07:25:05.943Z,1588.00
2019-02-28T07:26:12.356Z,1608.00
2019-02-28T07:27:06.895Z,1696.00
2019-02-28T07:28:06.854Z,1700.00
2019-02-28T07:29:29.292Z,1708.00
2019-02-28T07:30:28.354Z,1728.00
2019-02-28T07:31:30.858Z,1784.00
2019-02-28T07:32:07.349Z,1816.00
2019-02-28T07:33:10.583Z,1836.00
2019-02-28T07:37:18.574Z,1912.00
2019-02-28T07:38:31.401Z,1936.00
2019-02-28T07:39:11.822Z,1952.00
2019-02-28T07:40:33.286Z,1964.00
2019-02-28T07:41:10.887Z,1976.00
2019-02-28T07:42:14.888Z,2000.00
2019-02-28T07:43:13.025Z,1988.00
2019-02-28T07:44:11.390Z,1960.00
2019-02-28T07:45:12.139Z,1944.00
2019-02-28T07:46:11.386Z,2060.00
2019-02-28T07:47:11.385Z,2080.00
2019-02-28T07:48:14.886Z,2092.00
2019-02-28T07:49:11.894Z,2120.00
2019-02-28T07:50:11.897Z,2140.00
2019-02-28T07:51:11.887Z,2156.00
2019-02-28T07:52:34.320Z,2168.00
2019-02-28T07:53:14.892Z,2184.00
2019-02-28T07:54:12.576Z,2216.00
2019-02-28T07:55:12.402Z,2252.00
2019-02-28T07:57:48.353Z,2292.00
2019-02-28T07:58:47.619Z,2316.00
2019-02-28T07:59:44.124Z,2336.00
2019-02-28T08:00:43.718Z,2348.00
2019-02-28T08:01:44.620Z,2376.00
2019-02-28T08:02:44.618Z,2412.00
2019-02-28T08:03:48.622Z,2444.00
2019-02-28T08:05:06.119Z,2468.00
2019-02-28T08:05:45.126Z,2488.00
2019-02-28T08:06:45.117Z,2520.00
2019-02-28T08:07:50.196Z,2556.00
2019-02-28T08:08:44.736Z,2572.00
2019-02-28T08:10:12.780Z,2584.00
2019-02-28T08:10:48.036Z,2596.00
2019-02-28T08:11:45.624Z,2620.00
2019-02-28T08:13:07.117Z,2640.00
2019-02-28T08:13:47.055Z,2664.00
2019-02-28T08:16:21.402Z,2740.00
2019-02-28T08:17:43.849Z,2756.00
2019-02-28T08:18:21.408Z,2776.00
2019-02-28T08:19:22.972Z,2792.00
2019-02-28T08:20:25.407Z,2816.00
2019-02-28T08:21:21.908Z,2848.00
2019-02-28T08:22:24.310Z,2864.00
2019-02-28T08:23:22.414Z,2844.00
2019-02-28T08:24:22.412Z,2800.00
2019-02-28T08:25:22.411Z,2816.00
2019-02-28T08:26:26.907Z,2920.00
2019-02-28T08:27:42.977Z,3012.00
2019-02-28T08:28:22.907Z,3048.00
2019-02-28T08:29:22.122Z,3064.00
2019-02-28T08:30:28.924Z,3084.00
2019-02-28T08:31:22.958Z,3116.00
2019-02-28T08:32:26.407Z,3140.00
2019-02-28T08:34:58.866Z,3220.00
2019-02-28T08:35:55.583Z,3220.00
2019-02-28T08:36:54.646Z,3248.00
2019-02-28T08:37:58.154Z,3264.00
2019-02-28T08:39:18.149Z,3292.00
2019-02-28T08:39:55.644Z,3328.00
2019-02-28T08:40:55.147Z,3360.00
2019-02-28T08:42:16.648Z,3372.00
2019-02-28T08:42:59.146Z,3404.00
2019-02-28T08:44:22.477Z,3448.00
2019-02-28T08:44:58.954Z,3492.00
2019-02-28T08:46:17.154Z,3488.00
2019-02-28T08:47:17.812Z,3532.00
2019-02-28T08:47:56.960Z,3548.00
2019-02-28T08:49:00.146Z,3584.00
2019-02-28T08:50:20.562Z,3632.00
2019-02-28T08:50:56.724Z,3656.00
2019-02-28T08:53:28.133Z,3728.00
2019-02-28T08:54:53.139Z,3756.00
2019-02-28T08:55:29.218Z,3808.00
2019-02-28T08:58:05.301Z,3908.00
2019-02-28T08:59:22.695Z,3960.00
2019-02-28T09:00:03.394Z,3976.00
2019-02-28T09:01:00.381Z,4048.00
2019-02-28T09:02:00.381Z,4092.00
2019-02-28T09:03:01.016Z,4084.00
2019-02-28T09:04:04.964Z,4124.00
2019-02-28T09:06:37.924Z,4192.00
2019-02-28T09:07:58.259Z,4196.00
2019-02-28T09:08:36.196Z,4204.00
2019-02-28T09:09:36.688Z,4200.00
2019-02-28T09:10:40.192Z,4244.00
2019-02-28T09:11:42.624Z,4272.00
2019-02-28T09:12:39.121Z,4280.00
2019-02-28T09:13:39.991Z,4248.00
2019-02-28T09:14:37.196Z,4276.00
2019-02-28T09:15:37.188Z,4312.00
2019-02-28T09:16:41.193Z,4328.00
2019-02-28T09:17:37.893Z,4360.00
2019-02-28T09:18:37.688Z,4396.00
2019-02-28T09:19:37.687Z,4432.00
2019-02-28T09:20:37.688Z,4472.00
2019-02-28T09:21:38.190Z,4488.00
2019-02-28T09:22:41.186Z,4540.00
2019-02-28T09:23:38.514Z,4548.00
2019-02-28T09:24:38.188Z,4600.00
2019-02-28T09:25:38.692Z,4668.00
2019-02-28T09:26:38.686Z,4728.00
2019-02-28T09:27:42.686Z,4700.00
2019-02-28T09:28:38.686Z,4748.00
2019-02-28T09:29:39.187Z,4764.00
2019-02-28T09:30:39.186Z,4832.00
2019-02-28T09:31:39.827Z,4796.00
2019-02-28T09:32:38.661Z,4848.00
2019-02-28T09:33:42.691Z,4932.00
2019-02-28T09:34:41.253Z,5016.00
2019-02-28T09:35:45.290Z,5108.00
2019-02-28T09:36:39.694Z,5240.00
2019-02-28T09:37:40.187Z,5168.00
2019-02-28T09:38:45.249Z,5196.00
2019-02-28T09:39:40.198Z,5228.00
2019-02-28T09:40:41.246Z,5308.00
2019-02-28T09:41:41.300Z,5312.00
2019-02-28T09:43:01.689Z,5308.00
2019-02-28T09:43:40.687Z,5364.00
2019-02-28T09:44:43.995Z,5520.00
2019-02-28T09:45:41.275Z,5580.00
2019-02-28T09:48:12.443Z,5784.00
2019-02-28T09:49:33.450Z,5768.00
2019-02-28T09:50:19.350Z,5920.00
2019-02-28T09:51:12.952Z,6084.00
2019-02-28T09:52:12.960Z,6028.00
2019-02-28T09:53:15.673Z,6160.00
2019-02-28T09:54:12.957Z,6196.00
2019-02-28T09:55:13.037Z,6276.00
2019-02-28T09:57:53.775Z,6332.00
2019-02-28T09:58:49.555Z,6472.00
2019-02-28T09:59:48.713Z,6532.00
2019-02-28T10:02:24.455Z,6588.00
2019-02-28T10:03:20.464Z,6604.00
2019-02-28T10:04:20.456Z,6560.00
2019-02-28T10:05:20.961Z,6688.00
2019-02-28T10:06:20.963Z,6880.00
2019-02-28T10:07:23.378Z,6796.00
2019-02-28T10:08:24.461Z,6876.00
2019-02-28T10:09:21.454Z,6932.00
2019-02-28T10:10:21.847Z,6744.00
2019-02-28T10:11:21.884Z,6732.00
2019-02-28T10:12:21.454Z,6904.00
2019-02-28T10:13:25.459Z,7028.00
2019-02-28T10:14:21.959Z,7112.00
2019-02-28T10:15:27.959Z,7100.00
2019-02-28T10:16:21.960Z,7076.00
2019-02-28T10:17:25.933Z,7072.00
2019-02-28T10:18:22.456Z,7128.00
2019-02-28T10:19:26.457Z,7532.00
2019-02-28T10:20:26.566Z,7544.00
2019-02-28T10:21:43.957Z,7868.00
2019-02-28T10:22:22.962Z,7768.00
2019-02-28T10:23:22.955Z,7760.00
2019-02-28T10:24:22.434Z,7972.00
2019-02-28T10:25:27.895Z,8112.00
2019-02-28T10:26:48.243Z,8528.00
2019-02-28T10:27:26.727Z,8548.00
2019-02-28T10:28:23.460Z,7668.00
2019-02-28T10:29:23.966Z,7720.00
2019-02-28T10:30:32.255Z,7900.00
2019-02-28T10:31:35.180Z,8332.00
2019-02-28T10:32:23.441Z,8392.00
2019-02-28T10:34:58.308Z,7172.00
2019-02-28T10:35:58.571Z,9328.00
2019-02-28T10:36:55.694Z,9048.00
2019-02-28T10:39:27.443Z,9756.00
2019-02-28T10:40:27.439Z,9672.00
2019-02-28T10:41:31.324Z,9808.00
2019-02-28T10:42:49.542Z,9312.00
2019-02-28T10:43:27.948Z,8608.00
2019-02-28T10:44:30.734Z,8020.00
2019-02-28T10:45:27.947Z,8184.00
2019-02-28T10:46:30.333Z,9716.00
2019-02-28T10:47:29.775Z,9932.00
2019-02-28T10:48:28.476Z,10120.00
2019-02-28T10:49:28.439Z,10264.00
2019-02-28T10:50:31.923Z,9308.00
2019-02-28T10:51:32.447Z,10524.00
2019-02-28T10:52:49.950Z,9516.00
2019-02-28T10:53:29.617Z,9864.00
2019-02-28T10:56:21.689Z,11664.00
2019-02-28T10:57:05.945Z,11536.00
2019-02-28T10:58:00.692Z,12044.00
2019-02-28T11:00:33.528Z,12424.00
2019-02-28T11:01:32.456Z,12428.00
2019-02-28T11:02:36.463Z,12388.00
2019-02-28T11:03:53.951Z,12384.00
2019-02-28T11:04:32.951Z,11792.00
2019-02-28T11:05:54.480Z,11496.00
2019-02-28T11:06:32.947Z,11136.00
2019-02-28T11:07:34.195Z,10956.00
2019-02-28T11:08:37.447Z,11120.00
2019-02-28T11:09:33.447Z,11300.00
2019-02-28T11:10:36.172Z,11800.00
2019-02-28T11:11:33.947Z,13060.00
2019-02-28T11:12:57.119Z,14368.00
2019-02-28T11:13:33.947Z,13396.00
2019-02-28T11:14:38.638Z,13156.00
2019-02-28T11:15:34.448Z,13784.00
2019-02-28T11:16:36.093Z,13564.00
2019-02-28T11:17:34.447Z,14564.00
2019-02-28T11:18:55.451Z,15268.00
2019-02-28T11:19:38.448Z,17184.00
2019-02-28T11:20:34.946Z,33120.00
2019-02-28T11:21:34.951Z,40480.00
2019-02-28T11:22:36.471Z,34784.00
2019-02-28T11:23:35.447Z,50656.00
2019-02-28T11:25:00.867Z,48768.00
2019-02-28T11:25:35.677Z,45024.00
2019-02-28T11:26:35.448Z,57024.00
2019-02-28T11:31:02.639Z,42176.00
2019-02-28T11:31:38.651Z,40928.00
2019-02-28T11:32:38.646Z,60256.00
2019-02-28T11:34:00.146Z,66848.00
2019-02-28T11:34:39.142Z,54912.00
2019-02-28T11:36:03.647Z,46528.00
2019-02-28T11:36:39.148Z,53248.00
2019-02-28T11:37:42.329Z,51456.00
2019-02-28T11:38:39.647Z,49280.00
2019-02-28T11:40:00.647Z,42400.00
2019-02-28T11:40:40.376Z,23296.00
2019-02-28T11:41:43.647Z,54080.00
2019-02-28T11:42:40.148Z,68736.00
2019-02-28T11:43:40.148Z,54912.00
2019-02-28T11:44:40.145Z,37280.00
2019-02-28T11:46:03.151Z,16336.00
2019-02-28T11:46:42.130Z,29952.00
2019-02-28T11:47:43.647Z,28704.00
2019-02-28T11:49:01.652Z,67904.00
2019-02-28T11:49:42.627Z,50976.00
2019-02-28T11:50:42.536Z,46336.00
2019-02-28T11:51:41.149Z,84992.00
2019-02-28T11:52:45.148Z,82784.00
2019-02-28T11:54:02.648Z,90784.00
2019-02-28T11:54:41.648Z,91296.00
2019-02-28T11:55:41.646Z,88032.00
2019-02-28T11:56:41.652Z,16752.00
2019-02-28T11:57:45.149Z,10848.00
2019-02-28T11:59:03.152Z,10124.00
2019-02-28T11:59:42.149Z,42656.00
2019-02-28T12:00:42.156Z,89888.00
2019-02-28T12:01:47.469Z,67360.00
2019-02-28T12:02:53.054Z,57184.00
2019-02-28T12:03:42.654Z,12352.00
2019-02-28T12:04:42.649Z,9304.00
2019-02-28T12:07:13.695Z,38592.00
2019-02-28T12:08:41.607Z,76256.00
2019-02-28T12:09:35.416Z,51328.00
2019-02-28T12:10:14.926Z,25408.00
2019-02-28T12:11:14.916Z,7112.00
2019-02-28T12:12:14.918Z,6552.00
2019-02-28T12:13:19.700Z,6748.00
2019-02-28T12:14:15.416Z,6800.00
2019-02-28T12:15:15.416Z,7120.00
2019-02-28T12:16:16.305Z,9452.00
2019-02-28T12:17:15.416Z,13928.00
2019-02-28T12:18:40.987Z,8184.00
2019-02-28T12:19:16.785Z,7464.00
2019-02-28T12:20:15.918Z,7060.00
2019-02-28T12:21:37.958Z,7140.00
2019-02-28T12:23:54.266Z,7064.00
2019-02-28T12:24:48.205Z,7056.00
2019-02-28T12:25:48.186Z,7328.00
2019-02-28T12:26:49.413Z,7968.00
2019-02-28T12:32:08.801Z,12140.00
2019-02-28T12:33:04.195Z,11968.00
2019-02-28T12:34:03.242Z,13212.00
2019-02-28T12:35:24.242Z,17440.00
2019-02-28T12:36:03.242Z,25792.00
2019-02-28T12:37:03.740Z,27904.00
2019-02-28T12:39:39.056Z,36032.00
2019-02-28T12:40:39.071Z,12700.00
2019-02-28T12:42:00.397Z,23488.00
2019-02-28T12:42:41.002Z,28352.00
2019-02-28T12:43:43.063Z,49536.00
2019-02-28T12:44:39.626Z,54112.00
2019-02-28T12:46:00.827Z,40128.00
2019-02-28T12:46:39.563Z,28192.00
2019-02-28T12:48:03.064Z,30880.00
2019-02-28T12:48:40.065Z,31104.00
2019-02-28T12:50:04.061Z,36352.00
2019-02-28T12:50:40.065Z,40416.00
2019-02-28T12:53:14.317Z,33152.00
2019-02-28T12:54:12.332Z,37280.00
2019-02-28T12:58:19.039Z,69472.00
2019-02-28T12:59:18.395Z,58656.00
2019-02-28T13:00:23.465Z,70944.00
2019-02-28T13:02:50.784Z,24736.00
2019-02-28T13:03:54.625Z,18944.00
2019-02-28T13:04:50.791Z,16992.00
2019-02-28T13:05:54.796Z,11996.00
2019-02-28T13:06:51.310Z,11256.00
2019-02-28T13:07:51.288Z,11664.00
2019-02-28T13:08:53.389Z,14700.00
2019-02-28T13:11:26.561Z,16188.00
2019-02-28T13:12:48.710Z,14988.00
2019-02-28T13:13:27.526Z,35776.00
2019-02-28T13:14:23.573Z,36032.00
2019-02-28T13:15:23.567Z,44384.00
2019-02-28T13:16:29.004Z,45088.00
2019-02-28T13:17:23.581Z,52864.00
2019-02-28T13:18:24.075Z,57728.00
2019-02-28T13:19:24.067Z,55168.00
2019-02-28T13:20:24.067Z,61088.00
2019-02-28T13:21:24.068Z,61536.00
2019-02-28T13:22:28.567Z,44224.00
2019-02-28T13:23:45.567Z,30144.00
2019-02-28T13:24:24.595Z,29760.00
2019-02-28T13:25:24.909Z,30688.00
2019-02-28T13:26:25.068Z,27904.00
2019-02-28T13:27:25.069Z,26400.00
2019-02-28T13:28:42.568Z,23200.00
2019-02-28T13:29:46.069Z,24352.00
2019-02-28T13:30:25.581Z,46112.00
2019-02-28T13:31:28.002Z,49536.00
2019-02-28T13:32:27.508Z,42528.00
2019-02-28T13:33:29.571Z,31392.00
2019-02-28T13:34:29.042Z,24000.00
2019-02-28T13:37:02.128Z,14640.00
2019-02-28T13:37:57.348Z,11116.00
2019-02-28T13:40:55.151Z,12028.00
2019-02-28T13:41:32.595Z,11916.00
2019-02-28T13:42:53.588Z,10220.00
2019-02-28T13:43:54.737Z,9704.00
2019-02-28T13:44:37.318Z,8108.00
2019-02-28T13:45:33.088Z,7680.00
2019-02-28T13:46:34.340Z,7784.00
2019-02-28T13:47:33.640Z,8168.00
2019-02-28T13:48:54.602Z,11556.00
2019-02-28T13:49:33.589Z,13460.00
2019-02-28T13:50:37.596Z,29504.00
2019-02-28T13:51:40.569Z,43584.00
2019-02-28T13:52:34.091Z,35040.00
2019-02-28T13:53:34.098Z,31552.00
2019-02-28T13:54:34.090Z,32384.00
2019-02-28T13:55:34.597Z,43264.00
2019-02-28T13:56:37.600Z,45472.00
2019-02-28T13:57:34.598Z,41504.00
2019-02-28T14:00:08.303Z,18496.00
2019-02-28T14:01:06.239Z,14772.00
2019-02-28T14:03:42.338Z,13384.00
2019-02-28T14:04:41.816Z,13844.00
2019-02-28T14:05:41.946Z,13228.00
2019-02-28T14:06:42.315Z,12728.00
2019-02-28T14:07:45.815Z,12016.00
2019-02-28T14:08:46.054Z,11768.00
2019-02-28T14:09:44.317Z,11480.00
2019-02-28T14:10:42.816Z,10600.00